sensor_id;sensor_type;location;lat;lon;timestamp;P1;durP1;ratioP1;P2;durP2;ratioP2
24301;SDS011;12421;49.732;20.078;2023-06-22T00:07:06;10.80;;;4.90;;
24301;SDS011;12421;49.732;20.078;2023-06-22T00:17:23;10.40;;;5.20;;
24301;SDS011;12421;49.732;20.078;2023-06-22T00:27:29;10.20;;;5.10;;
24301;SDS011;12421;49.732;20.078;2023-06-22T00:37:38;9.50;;;4.30;;
24301;SDS011;12421;49.732;20.078;2023-06-22T00:47:48;9.20;;;5.10;;
24301;SDS011;12421;49.732;20.078;2023-06-22T00:58:07;16.30;;;4.30;;
24301;SDS011;12421;49.732;20.078;2023-06-22T01:08:31;12.00;;;4.70;;
24301;SDS011;12421;49.732;20.078;2023-06-22T01:18:49;11.40;;;5.40;;
24301;SDS011;12421;49.732;20.078;2023-06-22T01:28:55;9.40;;;4.70;;
24301;SDS011;12421;49.732;20.078;2023-06-22T01:39:03;8.00;;;5.00;;
24301;SDS011;12421;49.732;20.078;2023-06-22T01:49:08;9.90;;;4.30;;
24301;SDS011;12421;49.732;20.078;2023-06-22T01:59:21;8.30;;;4.70;;
24301;SDS011;12421;49.732;20.078;2023-06-22T02:09:30;11.30;;;3.90;;
24301;SDS011;12421;49.732;20.078;2023-06-22T02:19:36;10.80;;;4.30;;
24301;SDS011;12421;49.732;20.078;2023-06-22T02:29:40;7.20;;;4.10;;
24301;SDS011;12421;49.732;20.078;2023-06-22T02:39:43;9.70;;;4.20;;
24301;SDS011;12421;49.732;20.078;2023-06-22T02:49:47;7.30;;;3.70;;
24301;SDS011;12421;49.732;20.078;2023-06-22T02:59:50;7.40;;;4.30;;
24301;SDS011;12421;49.732;20.078;2023-06-22T03:20:22;9.30;;;4.40;;
24301;SDS011;12421;49.732;20.078;2023-06-22T03:30:26;9.60;;;4.50;;
24301;SDS011;12421;49.732;20.078;2023-06-22T03:40:31;9.00;;;4.10;;
24301;SDS011;12421;49.732;20.078;2023-06-22T04:01:04;11.80;;;4.40;;
24301;SDS011;12421;49.732;20.078;2023-06-22T04:11:09;13.80;;;4.20;;
24301;SDS011;12421;49.732;20.078;2023-06-22T04:21:12;6.80;;;4.70;;
24301;SDS011;12421;49.732;20.078;2023-06-22T04:31:19;9.00;;;4.00;;
24301;SDS011;12421;49.732;20.078;2023-06-22T04:41:22;10.10;;;4.50;;
24301;SDS011;12421;49.732;20.078;2023-06-22T04:51:27;7.10;;;4.00;;
24301;SDS011;12421;49.732;20.078;2023-06-22T05:01:33;6.50;;;3.90;;
24301;SDS011;12421;49.732;20.078;2023-06-22T05:11:37;7.10;;;4.40;;
24301;SDS011;12421;49.732;20.078;2023-06-22T05:21:40;14.20;;;4.80;;
24301;SDS011;12421;49.732;20.078;2023-06-22T05:42:12;5.70;;;3.90;;
24301;SDS011;12421;49.732;20.078;2023-06-22T05:52:15;11.60;;;4.50;;
24301;SDS011;12421;49.732;20.078;2023-06-22T06:02:18;6.40;;;3.60;;
24301;SDS011;12421;49.732;20.078;2023-06-22T06:12:22;10.00;;;3.90;;
24301;SDS011;12421;49.732;20.078;2023-06-22T06:32:54;8.50;;;3.90;;
24301;SDS011;12421;49.732;20.078;2023-06-22T06:53:27;7.50;;;4.20;;
24301;SDS011;12421;49.732;20.078;2023-06-22T07:03:31;5.50;;;4.00;;
24301;SDS011;12421;49.732;20.078;2023-06-22T07:13:36;8.20;;;4.40;;
24301;SDS011;12421;49.732;20.078;2023-06-22T07:23:39;7.10;;;4.50;;
24301;SDS011;12421;49.732;20.078;2023-06-22T07:33:42;8.80;;;4.50;;
24301;SDS011;12421;49.732;20.078;2023-06-22T07:43:46;8.00;;;4.80;;
24301;SDS011;12421;49.732;20.078;2023-06-22T07:53:49;6.80;;;4.80;;
24301;SDS011;12421;49.732;20.078;2023-06-22T08:03:52;9.10;;;5.80;;
24301;SDS011;12421;49.732;20.078;2023-06-22T08:13:55;8.80;;;5.20;;
24301;SDS011;12421;49.732;20.078;2023-06-22T08:24:01;9.00;;;5.80;;
24301;SDS011;12421;49.732;20.078;2023-06-22T08:44:34;10.90;;;6.40;;
24301;SDS011;12421;49.732;20.078;2023-06-22T08:54:37;12.00;;;6.80;;
24301;SDS011;12421;49.732;20.078;2023-06-22T09:15:10;11.40;;;8.70;;
24301;SDS011;12421;49.732;20.078;2023-06-22T09:35:47;14.70;;;8.40;;
24301;SDS011;12421;49.732;20.078;2023-06-22T09:45:51;12.30;;;9.80;;
24301;SDS011;12421;49.732;20.078;2023-06-22T09:55:54;12.90;;;10.10;;
24301;SDS011;12421;49.732;20.078;2023-06-22T10:05:57;16.80;;;10.80;;
24301;SDS011;12421;49.732;20.078;2023-06-22T10:16:00;11.40;;;9.60;;
24301;SDS011;12421;49.732;20.078;2023-06-22T10:26:03;14.80;;;13.30;;
24301;SDS011;12421;49.732;20.078;2023-06-22T10:36:07;19.30;;;14.60;;
24301;SDS011;12421;49.732;20.078;2023-06-22T10:56:38;21.40;;;17.50;;
24301;SDS011;12421;49.732;20.078;2023-06-22T11:06:41;18.00;;;16.10;;
24301;SDS011;12421;49.732;20.078;2023-06-22T11:16:44;16.60;;;14.70;;
24301;SDS011;12421;49.732;20.078;2023-06-22T11:37:20;15.10;;;13.60;;
24301;SDS011;12421;49.732;20.078;2023-06-22T11:47:23;14.30;;;12.60;;
24301;SDS011;12421;49.732;20.078;2023-06-22T11:57:26;13.70;;;12.30;;
24301;SDS011;12421;49.732;20.078;2023-06-22T12:07:30;14.90;;;12.00;;
24301;SDS011;12421;49.732;20.078;2023-06-22T12:17:34;13.10;;;11.80;;
24301;SDS011;12421;49.732;20.078;2023-06-22T12:27:37;12.30;;;11.00;;
24301;SDS011;12421;49.732;20.078;2023-06-22T12:37:41;12.70;;;11.50;;
24301;SDS011;12421;49.732;20.078;2023-06-22T12:58:14;14.20;;;11.50;;
24301;SDS011;12421;49.732;20.078;2023-06-22T13:08:17;13.60;;;11.80;;
24301;SDS011;12421;49.732;20.078;2023-06-22T13:18:20;16.10;;;10.70;;
24301;SDS011;12421;49.732;20.078;2023-06-22T13:28:23;12.60;;;11.20;;
24301;SDS011;12421;49.732;20.078;2023-06-22T13:38:30;12.10;;;10.80;;
24301;SDS011;12421;49.732;20.078;2023-06-22T13:48:35;16.40;;;11.20;;
24301;SDS011;12421;49.732;20.078;2023-06-22T13:58:38;13.50;;;10.90;;
24301;SDS011;12421;49.732;20.078;2023-06-22T14:08:41;12.00;;;10.80;;
24301;SDS011;12421;49.732;20.078;2023-06-22T14:18:44;12.50;;;11.30;;
24301;SDS011;12421;49.732;20.078;2023-06-22T14:28:48;11.90;;;10.70;;
24301;SDS011;12421;49.732;20.078;2023-06-22T14:38:53;10.90;;;9.80;;
24301;SDS011;12421;49.732;20.078;2023-06-22T14:48:56;11.30;;;10.20;;
24301;SDS011;12421;49.732;20.078;2023-06-22T14:58:59;13.70;;;10.10;;
24301;SDS011;12421;49.732;20.078;2023-06-22T15:09:02;16.10;;;10.40;;
24301;SDS011;12421;49.732;20.078;2023-06-22T15:19:07;10.20;;;9.10;;
24301;SDS011;12421;49.732;20.078;2023-06-22T15:29:10;9.60;;;8.60;;
24301;SDS011;12421;49.732;20.078;2023-06-22T15:39:13;10.70;;;9.30;;
24301;SDS011;12421;49.732;20.078;2023-06-22T15:49:17;9.90;;;8.90;;
24301;SDS011;12421;49.732;20.078;2023-06-22T16:09:50;13.20;;;8.80;;
24301;SDS011;12421;49.732;20.078;2023-06-22T16:19:54;9.20;;;8.30;;
24301;SDS011;12421;49.732;20.078;2023-06-22T16:29:58;10.00;;;8.60;;
24301;SDS011;12421;49.732;20.078;2023-06-22T16:50:30;11.50;;;9.60;;
24301;SDS011;12421;49.732;20.078;2023-06-22T17:00:34;9.70;;;8.10;;
24301;SDS011;12421;49.732;20.078;2023-06-22T17:10:39;11.30;;;8.80;;
24301;SDS011;12421;49.732;20.078;2023-06-22T17:20:44;11.50;;;9.00;;
24301;SDS011;12421;49.732;20.078;2023-06-22T17:30:48;11.00;;;8.30;;
24301;SDS011;12421;49.732;20.078;2023-06-22T17:41:13;11.30;;;8.30;;
24301;SDS011;12421;49.732;20.078;2023-06-22T17:51:17;10.40;;;7.70;;
24301;SDS011;12421;49.732;20.078;2023-06-22T18:01:30;10.00;;;7.70;;
24301;SDS011;12421;49.732;20.078;2023-06-22T18:11:40;9.30;;;8.40;;
24301;SDS011;12421;49.732;20.078;2023-06-22T18:21:47;12.50;;;9.70;;
24301;SDS011;12421;49.732;20.078;2023-06-22T18:31:51;12.50;;;9.00;;
24301;SDS011;12421;49.732;20.078;2023-06-22T18:41:54;11.90;;;9.60;;
24301;SDS011;12421;49.732;20.078;2023-06-22T19:12:36;15.40;;;9.70;;
24301;SDS011;12421;49.732;20.078;2023-06-22T19:22:52;16.50;;;10.70;;
24301;SDS011;12421;49.732;20.078;2023-06-22T19:43:01;13.80;;;9.90;;
24301;SDS011;12421;49.732;20.078;2023-06-22T19:53:07;12.80;;;9.90;;
24301;SDS011;12421;49.732;20.078;2023-06-22T20:03:16;13.70;;;9.80;;
24301;SDS011;12421;49.732;20.078;2023-06-22T20:13:20;15.40;;;10.70;;
24301;SDS011;12421;49.732;20.078;2023-06-22T20:23:27;14.10;;;10.90;;
24301;SDS011;12421;49.732;20.078;2023-06-22T20:33:30;12.20;;;10.50;;
24301;SDS011;12421;49.732;20.078;2023-06-22T20:43:34;14.90;;;10.80;;
24301;SDS011;12421;49.732;20.078;2023-06-22T21:14:39;14.70;;;10.70;;
24301;SDS011;12421;49.732;20.078;2023-06-22T21:24:42;14.30;;;10.80;;
24301;SDS011;12421;49.732;20.078;2023-06-22T21:34:47;18.70;;;12.20;;
24301;SDS011;12421;49.732;20.078;2023-06-22T21:44:50;19.40;;;12.20;;
24301;SDS011;12421;49.732;20.078;2023-06-22T21:54:53;13.70;;;11.60;;
24301;SDS011;12421;49.732;20.078;2023-06-22T22:04:56;14.70;;;11.90;;
24301;SDS011;12421;49.732;20.078;2023-06-22T22:14:59;17.90;;;11.50;;
24301;SDS011;12421;49.732;20.078;2023-06-22T22:25:02;13.80;;;10.70;;
24301;SDS011;12421;49.732;20.078;2023-06-22T22:35:05;14.30;;;10.50;;
24301;SDS011;12421;49.732;20.078;2023-06-22T22:45:09;19.60;;;11.80;;
24301;SDS011;12421;49.732;20.078;2023-06-22T22:55:15;11.50;;;10.20;;
24301;SDS011;12421;49.732;20.078;2023-06-22T23:05:19;12.60;;;10.50;;
24301;SDS011;12421;49.732;20.078;2023-06-22T23:15:23;16.10;;;10.90;;
24301;SDS011;12421;49.732;20.078;2023-06-22T23:25:26;14.90;;;11.20;;
24301;SDS011;12421;49.732;20.078;2023-06-22T23:35:30;15.40;;;10.30;;
24301;SDS011;12421;49.732;20.078;2023-06-22T23:45:34;17.10;;;11.20;;
24301;SDS011;12421;49.732;20.078;2023-06-22T23:55:37;16.20;;;9.80;;
